createdAt,value
2022-08-09T00:02:26.163Z,3.70
2022-08-09T00:06:17.933Z,4.03
2022-08-09T00:08:32.186Z,4.15
2022-08-09T00:11:25.257Z,4.05
2022-08-09T00:14:21.706Z,4.45
2022-08-09T00:18:05.340Z,4.60
2022-08-09T00:20:21.187Z,3.97
2022-08-09T00:23:53.795Z,4.18
2022-08-09T00:26:14.169Z,4.20
2022-08-09T00:29:02.515Z,4.22
2022-08-09T00:31:59.132Z,4.30
2022-08-09T00:34:52.151Z,4.30
2022-08-09T00:37:38.787Z,4.63
2022-08-09T00:40:30.921Z,4.43
2022-08-09T00:44:13.222Z,4.57
2022-08-09T00:46:56.263Z,4.38
2022-08-09T00:49:31.192Z,5.03
2022-08-09T00:52:17.944Z,4.20
2022-08-09T00:55:04.730Z,4.57
2022-08-09T00:57:50.746Z,4.40
2022-08-09T01:00:45.411Z,4.07
2022-08-09T01:10:00.621Z,4.63
2022-08-09T01:13:42.026Z,4.28
2022-08-09T01:16:47.498Z,4.47
2022-08-09T01:19:57.116Z,4.60
2022-08-09T01:22:55.578Z,4.70
2022-08-09T01:26:09.666Z,4.55
2022-08-09T01:28:57.012Z,4.45
2022-08-09T01:32:30.960Z,4.40
2022-08-09T01:34:54.957Z,4.30
2022-08-09T01:38:10.221Z,5.13
2022-08-09T01:41:05.903Z,4.38
2022-08-09T01:43:54.791Z,4.47
2022-08-09T01:46:47.170Z,4.78
2022-08-09T01:49:38.766Z,4.50
2022-08-09T01:52:26.179Z,4.55
2022-08-09T01:55:13.351Z,4.53
2022-08-09T01:58:01.709Z,5.28
2022-08-09T02:00:53.444Z,5.25
2022-08-09T02:03:42.947Z,5.45
2022-08-09T02:06:58.366Z,5.68
2022-08-09T02:09:59.422Z,5.25
2022-08-09T02:12:48.049Z,5.50
2022-08-09T02:15:49.403Z,5.82
2022-08-09T02:18:42.750Z,5.50
2022-08-09T02:21:39.529Z,5.72
2022-08-09T02:24:35.189Z,5.55
2022-08-09T02:27:57.443Z,5.30
2022-08-09T02:30:41.499Z,5.65
2022-08-09T02:33:38.117Z,5.45
2022-08-09T02:36:43.469Z,5.47
2022-08-09T02:39:41.850Z,5.28
2022-08-09T02:42:37.235Z,5.63
2022-08-09T02:45:29.993Z,5.95
2022-08-09T02:48:30.461Z,5.97
2022-08-09T02:51:20.307Z,5.43
2022-08-09T02:54:13.829Z,5.57
2022-08-09T02:57:13.904Z,6.25
2022-08-09T03:00:25.569Z,5.63
2022-08-09T03:03:13.798Z,5.95
2022-08-09T03:06:22.659Z,5.53
2022-08-09T03:09:10.466Z,5.20
2022-08-09T03:12:09.861Z,5.97
2022-08-09T03:14:58.174Z,5.30
2022-08-09T03:20:31.241Z,5.15
2022-08-09T03:23:24.447Z,5.40
2022-08-09T03:26:11.263Z,5.70
2022-08-09T03:29:01.789Z,5.57
2022-08-09T03:32:00.296Z,5.55
2022-08-09T03:34:48.216Z,5.43
2022-08-09T03:37:55.270Z,9.15
2022-08-09T03:40:43.412Z,5.80
2022-08-09T03:43:32.186Z,6.00
2022-08-09T03:46:27.209Z,5.85
2022-08-09T03:49:18.983Z,6.33
2022-08-09T03:52:07.286Z,5.60
2022-08-09T03:54:55.917Z,5.57
2022-08-09T03:57:44.799Z,6.03
2022-08-09T04:00:41.766Z,6.00
2022-08-09T04:03:46.141Z,5.97
2022-08-09T04:06:36.530Z,6.53
2022-08-09T04:09:47.557Z,6.25
2022-08-09T04:12:45.340Z,9.27
2022-08-09T04:16:17.912Z,6.88
2022-08-09T04:18:40.717Z,6.43
2022-08-09T04:21:27.701Z,6.13
2022-08-09T04:24:16.007Z,5.78
2022-08-09T04:27:03.469Z,6.20
2022-08-09T04:29:50.459Z,6.10
2022-08-09T04:32:37.424Z,6.30
2022-08-09T04:35:25.010Z,6.25
2022-08-09T04:38:15.694Z,7.60
2022-08-09T04:41:04.967Z,7.22
2022-08-09T04:44:07.325Z,6.70
2022-08-09T04:46:59.781Z,5.97
2022-08-09T04:49:55.070Z,6.43
2022-08-09T04:52:42.188Z,6.88
2022-08-09T04:58:27.041Z,5.95
2022-08-09T05:01:16.514Z,5.93
2022-08-09T05:04:05.376Z,6.60
2022-08-09T05:06:51.450Z,6.43
2022-08-09T05:09:42.244Z,5.90
2022-08-09T05:12:36.420Z,6.20
2022-08-09T05:15:39.357Z,6.05
2022-08-09T05:18:37.559Z,5.80
2022-08-09T05:21:30.264Z,6.32
2022-08-09T05:24:24.051Z,6.00
2022-08-09T05:27:10.516Z,6.18
2022-08-09T05:29:59.699Z,6.35
2022-08-09T05:32:50.804Z,5.95
2022-08-09T05:35:45.032Z,5.93
2022-08-09T05:38:32.914Z,6.10
2022-08-09T05:41:25.495Z,5.90
2022-08-09T05:44:11.559Z,5.88
2022-08-09T05:47:00.555Z,16.73
2022-08-09T05:50:30.250Z,6.55
2022-08-09T05:52:54.821Z,5.90
2022-08-09T05:55:41.301Z,6.00
2022-08-09T05:58:27.334Z,6.07
2022-08-09T06:01:15.980Z,5.70
2022-08-09T06:04:05.798Z,5.90
2022-08-09T06:06:52.143Z,5.55
2022-08-09T06:09:54.944Z,6.15
2022-08-09T06:12:44.873Z,5.80
2022-08-09T06:15:39.386Z,5.82
2022-08-09T06:18:25.963Z,5.07
2022-08-09T06:21:12.327Z,5.32
2022-08-09T06:24:02.687Z,5.30
2022-08-09T06:26:49.241Z,5.10
2022-08-09T06:29:48.379Z,5.55
2022-08-09T06:33:00.900Z,5.45
2022-08-09T06:35:57.584Z,4.93
2022-08-09T06:38:49.926Z,5.50
2022-08-09T06:42:00.467Z,5.00
2022-08-09T06:44:44.738Z,5.03
2022-08-09T06:47:39.856Z,6.15
2022-08-09T06:50:27.949Z,4.70
2022-08-09T06:53:17.906Z,5.40
2022-08-09T06:56:07.930Z,4.65
2022-08-09T07:00:56.360Z,4.95
2022-08-09T07:02:04.800Z,4.13
2022-08-09T07:04:51.391Z,4.03
2022-08-09T07:07:58.598Z,4.05
2022-08-09T07:10:43.918Z,3.92
2022-08-09T07:13:45.130Z,3.90
2022-08-09T07:16:41.058Z,3.70
2022-08-09T07:19:33.677Z,3.70
2022-08-09T07:22:34.396Z,3.50
2022-08-09T07:25:21.333Z,3.60
2022-08-09T07:28:07.702Z,2.85
2022-08-09T07:30:55.562Z,3.03
2022-08-09T07:36:41.689Z,3.45
2022-08-09T07:39:41.518Z,3.55
2022-08-09T07:42:32.811Z,3.50
2022-08-09T07:45:39.828Z,3.10
2022-08-09T07:48:30.442Z,3.50
2022-08-09T07:52:05.387Z,2.92
2022-08-09T07:54:28.146Z,3.38
2022-08-09T07:57:16.711Z,3.13
2022-08-09T08:00:04.190Z,7.97
2022-08-09T08:02:59.399Z,3.45
2022-08-09T08:05:57.684Z,2.92
2022-08-09T08:09:03.049Z,2.90
2022-08-09T08:12:24.398Z,2.58
2022-08-09T08:14:57.055Z,2.72
2022-08-09T08:17:55.224Z,2.13
2022-08-09T08:20:43.688Z,2.40
2022-08-09T08:23:31.817Z,2.30
2022-08-09T08:26:26.487Z,2.65
2022-08-09T08:29:14.137Z,2.20
2022-08-09T08:32:06.027Z,2.88
2022-08-09T08:34:52.392Z,2.08
2022-08-09T08:38:02.100Z,2.13
2022-08-09T08:40:49.465Z,2.00
2022-08-09T08:43:36.122Z,2.28
2022-08-09T08:46:33.052Z,2.03
2022-08-09T08:49:38.689Z,1.98
2022-08-09T08:52:58.378Z,1.75
2022-08-09T08:55:43.687Z,2.05
2022-08-09T08:58:31.434Z,2.05
2022-08-09T09:01:24.649Z,2.10
2022-08-09T09:04:12.706Z,1.90
2022-08-09T09:07:03.282Z,1.92
2022-08-09T09:10:01.897Z,1.98
2022-08-09T09:12:51.927Z,1.83
2022-08-09T09:15:42.567Z,1.70
2022-08-09T09:18:35.853Z,1.77
2022-08-09T09:21:26.109Z,1.75
2022-08-09T09:24:21.521Z,2.40
2022-08-09T09:27:09.736Z,2.40
2022-08-09T09:30:32.924Z,2.00
2022-08-09T09:33:44.940Z,1.58
2022-08-09T09:36:39.251Z,1.63
2022-08-09T09:39:55.378Z,1.60
2022-08-09T09:42:42.792Z,1.57
2022-08-09T09:45:30.780Z,1.70
2022-08-09T09:48:19.224Z,1.77
2022-08-09T09:51:07.093Z,1.80
2022-08-09T09:54:20.432Z,2.10
2022-08-09T09:58:03.786Z,1.88
2022-08-09T10:00:27.994Z,1.92
2022-08-09T10:03:15.034Z,1.80
2022-08-09T10:06:04.695Z,1.85
2022-08-09T10:08:57.087Z,2.00
2022-08-09T10:11:59.919Z,2.42
2022-08-09T10:14:51.669Z,1.77
2022-08-09T10:17:56.784Z,2.20
2022-08-09T10:20:45.134Z,1.95
2022-08-09T10:23:32.020Z,2.15
2022-08-09T10:26:24.726Z,1.95
2022-08-09T10:29:21.270Z,1.88
2022-08-09T10:32:38.579Z,1.80
2022-08-09T10:35:26.913Z,1.60
2022-08-09T10:38:54.913Z,1.80
2022-08-09T10:44:08.110Z,1.70
2022-08-09T10:48:12.541Z,1.80
2022-08-09T10:51:09.162Z,1.52
2022-08-09T10:54:12.526Z,1.95
2022-08-09T10:57:14.086Z,1.60
2022-08-09T11:00:01.556Z,1.55
2022-08-09T11:03:13.091Z,1.73
2022-08-09T11:06:16.876Z,1.90
2022-08-09T11:09:15.518Z,2.00
2022-08-09T11:12:30.097Z,1.90
2022-08-09T11:15:19.360Z,1.90
2022-08-09T11:18:13.166Z,1.60
2022-08-09T11:21:03.543Z,1.95
2022-08-09T11:24:01.002Z,2.00
2022-08-09T11:26:54.791Z,2.10
2022-08-09T11:30:05.681Z,1.92
2022-08-09T11:32:59.088Z,1.77
2022-08-09T11:35:58.894Z,2.38
2022-08-09T11:39:01.316Z,2.20
2022-08-09T11:41:48.873Z,1.70
2022-08-09T11:44:45.517Z,2.00
2022-08-09T11:47:52.679Z,2.10
2022-08-09T11:52:57.076Z,1.80
2022-08-09T11:54:14.104Z,2.10
2022-08-09T11:58:00.923Z,1.83
2022-08-09T12:01:08.732Z,1.75
2022-08-09T12:04:00.849Z,1.77
2022-08-09T12:06:55.755Z,1.90
2022-08-09T12:09:50.577Z,1.70
2022-08-09T12:12:48.646Z,1.80
2022-08-09T12:15:48.742Z,2.13
2022-08-09T12:18:39.589Z,2.00
2022-08-09T12:21:38.264Z,1.80
2022-08-09T12:24:25.748Z,1.70
2022-08-09T12:29:09.977Z,1.80
2022-08-09T12:30:36.096Z,1.70
2022-08-09T12:33:26.487Z,2.42
2022-08-09T12:36:34.051Z,1.70
2022-08-09T12:39:23.227Z,1.83
2022-08-09T12:42:16.666Z,1.73
2022-08-09T12:45:07.075Z,1.60
2022-08-09T12:48:28.002Z,1.73
2022-08-09T12:51:52.702Z,1.58
2022-08-09T12:54:26.463Z,2.03
2022-08-09T12:57:12.354Z,1.70
2022-08-09T13:03:00.511Z,1.80
2022-08-09T13:05:51.690Z,1.95
2022-08-09T13:09:06.451Z,1.80
2022-08-09T13:12:02.121Z,1.80
2022-08-09T13:14:53.823Z,1.70
2022-08-09T13:18:03.401Z,1.85
2022-08-09T13:21:20.479Z,1.80
2022-08-09T13:24:16.099Z,2.58
2022-08-09T13:27:31.236Z,1.85
2022-08-09T13:30:50.471Z,1.60
2022-08-09T13:33:52.444Z,1.58
2022-08-09T13:36:43.188Z,1.30
2022-08-09T13:41:50.482Z,1.60
2022-08-09T13:42:36.725Z,1.60
2022-08-09T13:48:29.907Z,1.60
2022-08-09T13:51:16.249Z,1.65
2022-08-09T13:54:02.601Z,1.38
2022-08-09T13:56:48.581Z,1.52
2022-08-09T13:59:41.567Z,1.48
2022-08-09T14:02:27.928Z,1.58
2022-08-09T14:05:59.363Z,1.42
2022-08-09T14:08:20.738Z,1.63
2022-08-09T14:11:15.833Z,1.63
2022-08-09T14:14:24.006Z,1.50
2022-08-09T14:17:12.055Z,1.50
2022-08-09T14:19:59.601Z,1.80
2022-08-09T14:22:46.112Z,1.35
2022-08-09T14:25:42.934Z,1.33
2022-08-09T14:28:29.642Z,1.60
2022-08-09T14:31:17.532Z,1.35
2022-08-09T14:34:10.706Z,1.30
2022-08-09T14:36:56.914Z,1.55
2022-08-09T14:39:46.775Z,1.98
2022-08-09T14:42:34.329Z,2.20
2022-08-09T14:46:57.243Z,1.30
2022-08-09T14:48:26.873Z,1.58
2022-08-09T14:51:12.931Z,1.25
2022-08-09T14:54:00.134Z,1.40
2022-08-09T14:56:57.297Z,1.40
2022-08-09T15:02:35.031Z,1.20
2022-08-09T15:05:21.664Z,1.50
2022-08-09T15:08:10.419Z,1.27
2022-08-09T15:11:01.568Z,1.23
2022-08-09T15:14:01.639Z,1.58
2022-08-09T15:16:51.247Z,1.50
2022-08-09T15:19:54.647Z,1.30
2022-08-09T15:22:46.737Z,1.27
2022-08-09T15:25:40.821Z,1.52
2022-08-09T15:28:31.050Z,1.10
2022-08-09T15:31:19.820Z,1.48
2022-08-09T15:34:33.204Z,1.45
2022-08-09T15:37:37.192Z,1.45
2022-08-09T15:40:25.322Z,1.30
2022-08-09T15:43:18.653Z,1.20
2022-08-09T15:46:33.744Z,1.38
2022-08-09T15:49:21.968Z,1.38
2022-08-09T15:52:10.195Z,1.15
2022-08-09T15:54:57.977Z,1.48
2022-08-09T15:57:51.278Z,1.40
2022-08-09T16:00:37.956Z,1.20
2022-08-09T16:03:29.436Z,1.45
2022-08-09T16:06:35.751Z,1.58
2022-08-09T16:09:51.240Z,1.38
2022-08-09T16:12:30.972Z,1.63
2022-08-09T16:16:10.740Z,1.40
2022-08-09T16:18:24.028Z,1.58
2022-08-09T16:21:09.870Z,1.40
2022-08-09T16:23:58.548Z,1.30
2022-08-09T16:26:48.677Z,1.30
2022-08-09T16:29:37.636Z,1.55
2022-08-09T16:32:54.879Z,1.60
2022-08-09T16:35:57.077Z,1.60
2022-08-09T16:38:46.154Z,1.30
2022-08-09T16:41:39.309Z,1.55
2022-08-09T16:44:44.367Z,1.58
2022-08-09T16:48:40.195Z,1.48
2022-08-09T16:50:38.412Z,1.73
2022-08-09T16:53:24.738Z,1.42
2022-08-09T16:56:18.666Z,1.30
2022-08-09T16:59:11.578Z,1.33
2022-08-09T17:01:57.966Z,1.40
2022-08-09T17:04:45.480Z,1.55
2022-08-09T17:08:47.089Z,1.40
2022-08-09T17:10:38.330Z,1.38
2022-08-09T17:13:24.581Z,1.67
2022-08-09T17:16:20.486Z,1.48
2022-08-09T17:19:06.649Z,1.50
2022-08-09T17:21:57.026Z,1.40
2022-08-09T17:24:47.887Z,1.40
2022-08-09T17:27:49.234Z,1.67
2022-08-09T17:30:40.124Z,1.50
2022-08-09T17:33:37.711Z,1.70
2022-08-09T17:36:25.958Z,1.80
2022-08-09T17:39:14.447Z,1.73
2022-08-09T17:42:01.473Z,1.40
2022-08-09T17:44:49.360Z,1.38
2022-08-09T17:47:49.501Z,1.42
2022-08-09T17:50:37.664Z,1.40
2022-08-09T17:53:23.840Z,1.52
2022-08-09T17:56:09.954Z,1.23
2022-08-09T17:59:09.292Z,1.45
2022-08-09T18:02:06.553Z,1.60
2022-08-09T18:04:58.645Z,1.52
2022-08-09T18:07:48.584Z,1.25
2022-08-09T18:10:35.051Z,1.80
2022-08-09T18:13:38.686Z,1.42
2022-08-09T18:16:30.679Z,1.52
2022-08-09T18:20:54.132Z,1.40
2022-08-09T18:22:25.429Z,1.95
2022-08-09T18:25:11.670Z,1.70
2022-08-09T18:28:05.360Z,1.55
2022-08-09T18:30:54.452Z,1.60
2022-08-09T18:33:40.771Z,1.60
2022-08-09T18:36:32.569Z,1.55
2022-08-09T18:39:25.074Z,1.65
2022-08-09T18:42:14.993Z,1.83
2022-08-09T18:45:02.464Z,1.80
2022-08-09T18:47:55.086Z,1.80
2022-08-09T18:50:44.608Z,1.90
2022-08-09T18:54:00.547Z,1.45
2022-08-09T18:56:39.083Z,2.25
2022-08-09T18:59:26.981Z,2.03
2022-08-09T19:02:31.845Z,2.22
2022-08-09T19:05:48.827Z,1.90
2022-08-09T19:08:28.111Z,2.10
2022-08-09T19:14:03.204Z,2.22
2022-08-09T19:16:52.250Z,3.63
2022-08-09T19:19:41.927Z,2.83
2022-08-09T19:22:28.221Z,2.22
2022-08-09T19:25:42.713Z,2.30
2022-08-09T19:28:20.529Z,2.20
2022-08-09T19:31:07.753Z,2.45
2022-08-09T19:33:54.773Z,2.08
2022-08-09T19:36:43.727Z,2.30
2022-08-09T19:40:02.667Z,1.88
2022-08-09T19:42:36.643Z,2.17
2022-08-09T19:45:25.013Z,1.95
2022-08-09T19:49:02.162Z,2.55
2022-08-09T19:51:31.698Z,1.98
2022-08-09T19:54:27.453Z,2.33
2022-08-09T19:57:13.860Z,2.00
2022-08-09T20:00:07.817Z,2.00
2022-08-09T20:04:16.820Z,2.00
2022-08-09T20:06:04.840Z,2.08
2022-08-09T20:09:20.572Z,2.40
2022-08-09T20:12:29.813Z,2.03
2022-08-09T20:16:35.049Z,2.10
2022-08-09T20:18:29.793Z,1.88
2022-08-09T20:21:16.651Z,1.92
2022-08-09T20:24:08.157Z,2.40
2022-08-09T20:26:56.273Z,2.30
2022-08-09T20:29:44.644Z,2.30
2022-08-09T20:32:34.097Z,2.03
2022-08-09T20:35:21.714Z,2.10
2022-08-09T20:38:22.353Z,1.92
2022-08-09T20:41:14.334Z,2.13
2022-08-09T20:44:00.782Z,2.17
2022-08-09T20:46:46.841Z,2.10
2022-08-09T20:49:36.971Z,2.00
2022-08-09T20:52:22.784Z,2.20
2022-08-09T20:55:11.773Z,2.20
2022-08-09T20:58:07.869Z,1.90
2022-08-09T21:01:32.594Z,2.50
2022-08-09T21:05:52.070Z,1.95
2022-08-09T21:07:18.386Z,2.15
2022-08-09T21:10:04.787Z,2.10
2022-08-09T21:15:52.105Z,2.15
2022-08-09T21:20:05.255Z,2.53
2022-08-09T21:21:56.463Z,2.42
2022-08-09T21:25:02.475Z,2.80
2022-08-09T21:27:51.720Z,2.00
2022-08-09T21:30:41.088Z,2.60
2022-08-09T21:33:27.394Z,2.20
2022-08-09T21:36:27.829Z,2.67
2022-08-09T21:39:21.903Z,2.30
2022-08-09T21:42:14.358Z,2.60
2022-08-09T21:45:01.228Z,2.20
2022-08-09T21:47:51.008Z,2.15
2022-08-09T21:50:38.845Z,2.40
2022-08-09T21:53:40.729Z,2.33
2022-08-09T21:56:33.930Z,2.40
2022-08-09T21:59:43.020Z,2.20
2022-08-09T22:02:36.518Z,2.20
2022-08-09T22:05:35.692Z,2.35
2022-08-09T22:08:27.634Z,2.22
2022-08-09T22:12:05.790Z,2.33
2022-08-09T22:14:21.081Z,2.55
2022-08-09T22:17:07.656Z,2.45
2022-08-09T22:19:58.547Z,2.85
2022-08-09T22:22:48.469Z,2.33
2022-08-09T22:26:08.691Z,2.50
2022-08-09T22:28:47.170Z,2.33
2022-08-09T22:31:44.390Z,2.30
2022-08-09T22:34:42.877Z,2.20
2022-08-09T22:37:28.798Z,2.58
2022-08-09T22:40:26.487Z,2.10
2022-08-09T22:43:16.855Z,2.80
2022-08-09T22:48:11.728Z,2.42
2022-08-09T22:49:26.184Z,2.67
2022-08-09T22:52:17.622Z,2.97
2022-08-09T22:55:07.253Z,2.45
2022-08-09T22:57:59.778Z,2.33
2022-08-09T23:00:46.666Z,2.63
2022-08-09T23:04:05.783Z,2.90
2022-08-09T23:06:58.889Z,2.85
2022-08-09T23:09:44.867Z,2.38
2022-08-09T23:12:30.830Z,2.40
2022-08-09T23:15:16.878Z,2.80
2022-08-09T23:18:02.857Z,2.57
2022-08-09T23:20:48.962Z,2.47
2022-08-09T23:23:35.537Z,2.33
2022-08-09T23:26:21.617Z,2.78
2022-08-09T23:29:11.461Z,2.25
2022-08-09T23:31:57.853Z,2.60
2022-08-09T23:34:43.819Z,2.30
2022-08-09T23:37:29.797Z,2.70
2022-08-09T23:40:17.105Z,3.00
2022-08-09T23:43:03.236Z,2.55
2022-08-09T23:45:49.320Z,2.90
2022-08-09T23:48:35.554Z,2.50
2022-08-09T23:51:21.726Z,2.67
2022-08-09T23:56:56.236Z,3.03
